sensor_id;sensor_type;location;lat;lon;timestamp;P1;durP1;ratioP1;P2;durP2;ratioP2
52858;SDS011;38721;53.098;6.596;2024-01-30T00:01:51;28.75;;;21.63;;
52858;SDS011;38721;53.098;6.596;2024-01-30T00:04:17;30.80;;;22.60;;
52858;SDS011;38721;53.098;6.596;2024-01-30T00:06:43;30.00;;;21.80;;
52858;SDS011;38721;53.098;6.596;2024-01-30T00:09:09;27.67;;;21.48;;
52858;SDS011;38721;53.098;6.596;2024-01-30T00:11:36;26.65;;;21.90;;
52858;SDS011;38721;53.098;6.596;2024-01-30T00:14:02;29.63;;;22.48;;
52858;SDS011;38721;53.098;6.596;2024-01-30T00:16:28;30.52;;;21.85;;
52858;SDS011;38721;53.098;6.596;2024-01-30T00:18:54;31.25;;;22.90;;
52858;SDS011;38721;53.098;6.596;2024-01-30T00:21:20;28.60;;;21.00;;
52858;SDS011;38721;53.098;6.596;2024-01-30T00:23:46;32.75;;;23.60;;
52858;SDS011;38721;53.098;6.596;2024-01-30T00:26:12;29.95;;;22.67;;
52858;SDS011;38721;53.098;6.596;2024-01-30T00:28:40;30.25;;;21.48;;
52858;SDS011;38721;53.098;6.596;2024-01-30T00:31:06;34.50;;;23.40;;
52858;SDS011;38721;53.098;6.596;2024-01-30T00:33:32;31.02;;;22.80;;
52858;SDS011;38721;53.098;6.596;2024-01-30T00:35:58;30.95;;;22.38;;
52858;SDS011;38721;53.098;6.596;2024-01-30T00:38:23;30.95;;;22.15;;
52858;SDS011;38721;53.098;6.596;2024-01-30T00:40:49;30.65;;;22.00;;
52858;SDS011;38721;53.098;6.596;2024-01-30T00:43:15;30.63;;;22.20;;
52858;SDS011;38721;53.098;6.596;2024-01-30T00:45:41;29.15;;;21.70;;
52858;SDS011;38721;53.098;6.596;2024-01-30T00:48:08;30.10;;;22.73;;
52858;SDS011;38721;53.098;6.596;2024-01-30T00:50:34;31.90;;;22.75;;
52858;SDS011;38721;53.098;6.596;2024-01-30T00:53:00;29.75;;;22.98;;
52858;SDS011;38721;53.098;6.596;2024-01-30T00:55:26;30.95;;;22.80;;
52858;SDS011;38721;53.098;6.596;2024-01-30T00:57:51;32.67;;;23.25;;
52858;SDS011;38721;53.098;6.596;2024-01-30T01:00:17;30.38;;;23.30;;
52858;SDS011;38721;53.098;6.596;2024-01-30T01:02:43;33.78;;;23.95;;
52858;SDS011;38721;53.098;6.596;2024-01-30T01:05:09;31.77;;;23.65;;
52858;SDS011;38721;53.098;6.596;2024-01-30T01:07:35;32.42;;;23.77;;
52858;SDS011;38721;53.098;6.596;2024-01-30T01:10:01;31.98;;;23.58;;
52858;SDS011;38721;53.098;6.596;2024-01-30T01:12:27;34.70;;;25.23;;
52858;SDS011;38721;53.098;6.596;2024-01-30T01:14:53;31.40;;;23.42;;
52858;SDS011;38721;53.098;6.596;2024-01-30T01:17:19;32.20;;;23.55;;
52858;SDS011;38721;53.098;6.596;2024-01-30T01:19:44;31.23;;;23.90;;
52858;SDS011;38721;53.098;6.596;2024-01-30T01:22:10;36.88;;;25.42;;
52858;SDS011;38721;53.098;6.596;2024-01-30T01:24:36;33.83;;;25.08;;
52858;SDS011;38721;53.098;6.596;2024-01-30T01:27:02;33.40;;;24.60;;
52858;SDS011;38721;53.098;6.596;2024-01-30T01:29:28;34.22;;;24.58;;
52858;SDS011;38721;53.098;6.596;2024-01-30T01:31:54;34.35;;;25.08;;
52858;SDS011;38721;53.098;6.596;2024-01-30T01:34:21;32.00;;;24.30;;
52858;SDS011;38721;53.098;6.596;2024-01-30T01:36:47;33.72;;;24.58;;
52858;SDS011;38721;53.098;6.596;2024-01-30T01:39:12;32.45;;;25.15;;
52858;SDS011;38721;53.098;6.596;2024-01-30T01:41:38;36.53;;;24.88;;
52858;SDS011;38721;53.098;6.596;2024-01-30T01:44:04;37.28;;;23.50;;
52858;SDS011;38721;53.098;6.596;2024-01-30T01:46:31;36.10;;;24.75;;
52858;SDS011;38721;53.098;6.596;2024-01-30T01:48:58;34.15;;;24.33;;
52858;SDS011;38721;53.098;6.596;2024-01-30T01:51:25;33.38;;;24.55;;
52858;SDS011;38721;53.098;6.596;2024-01-30T01:53:56;34.03;;;23.67;;
52858;SDS011;38721;53.098;6.596;2024-01-30T01:56:28;34.10;;;23.92;;
52858;SDS011;38721;53.098;6.596;2024-01-30T01:58:55;36.03;;;24.85;;
52858;SDS011;38721;53.098;6.596;2024-01-30T02:01:24;31.00;;;24.25;;
52858;SDS011;38721;53.098;6.596;2024-01-30T02:03:52;35.00;;;24.45;;
52858;SDS011;38721;53.098;6.596;2024-01-30T02:06:18;33.15;;;24.05;;
52858;SDS011;38721;53.098;6.596;2024-01-30T02:08:44;31.58;;;23.83;;
52858;SDS011;38721;53.098;6.596;2024-01-30T02:11:10;33.38;;;24.83;;
52858;SDS011;38721;53.098;6.596;2024-01-30T02:13:36;32.00;;;23.33;;
52858;SDS011;38721;53.098;6.596;2024-01-30T02:16:02;34.40;;;24.23;;
52858;SDS011;38721;53.098;6.596;2024-01-30T02:18:28;32.50;;;24.20;;
52858;SDS011;38721;53.098;6.596;2024-01-30T02:20:54;33.45;;;23.73;;
52858;SDS011;38721;53.098;6.596;2024-01-30T02:23:24;37.00;;;24.35;;
52858;SDS011;38721;53.098;6.596;2024-01-30T02:25:51;31.80;;;23.83;;
52858;SDS011;38721;53.098;6.596;2024-01-30T02:28:18;39.58;;;23.75;;
52858;SDS011;38721;53.098;6.596;2024-01-30T02:30:45;33.20;;;24.67;;
52858;SDS011;38721;53.098;6.596;2024-01-30T02:33:11;30.95;;;23.02;;
52858;SDS011;38721;53.098;6.596;2024-01-30T02:35:37;31.42;;;22.55;;
52858;SDS011;38721;53.098;6.596;2024-01-30T02:38:03;31.88;;;23.88;;
52858;SDS011;38721;53.098;6.596;2024-01-30T02:40:29;31.27;;;24.52;;
52858;SDS011;38721;53.098;6.596;2024-01-30T02:42:55;33.65;;;23.17;;
52858;SDS011;38721;53.098;6.596;2024-01-30T02:45:21;31.23;;;23.30;;
52858;SDS011;38721;53.098;6.596;2024-01-30T02:47:47;30.73;;;23.02;;
52858;SDS011;38721;53.098;6.596;2024-01-30T02:50:13;30.77;;;22.80;;
52858;SDS011;38721;53.098;6.596;2024-01-30T02:52:40;31.10;;;23.23;;
52858;SDS011;38721;53.098;6.596;2024-01-30T02:55:06;29.35;;;22.52;;
52858;SDS011;38721;53.098;6.596;2024-01-30T02:57:31;32.65;;;23.60;;
52858;SDS011;38721;53.098;6.596;2024-01-30T02:59:57;30.73;;;21.92;;
52858;SDS011;38721;53.098;6.596;2024-01-30T03:02:23;29.52;;;22.98;;
52858;SDS011;38721;53.098;6.596;2024-01-30T03:04:49;29.73;;;22.70;;
52858;SDS011;38721;53.098;6.596;2024-01-30T03:07:15;33.83;;;23.05;;
52858;SDS011;38721;53.098;6.596;2024-01-30T03:09:43;28.88;;;21.83;;
52858;SDS011;38721;53.098;6.596;2024-01-30T03:12:09;32.45;;;22.15;;
52858;SDS011;38721;53.098;6.596;2024-01-30T03:14:35;29.70;;;22.13;;
52858;SDS011;38721;53.098;6.596;2024-01-30T03:17:01;31.25;;;22.52;;
52858;SDS011;38721;53.098;6.596;2024-01-30T03:19:27;29.60;;;21.23;;
52858;SDS011;38721;53.098;6.596;2024-01-30T03:21:53;28.73;;;22.10;;
52858;SDS011;38721;53.098;6.596;2024-01-30T03:24:19;31.42;;;21.23;;
52858;SDS011;38721;53.098;6.596;2024-01-30T03:26:45;28.65;;;22.15;;
52858;SDS011;38721;53.098;6.596;2024-01-30T03:29:11;31.85;;;21.10;;
52858;SDS011;38721;53.098;6.596;2024-01-30T03:31:38;28.58;;;20.83;;
52858;SDS011;38721;53.098;6.596;2024-01-30T03:34:04;30.17;;;21.05;;
52858;SDS011;38721;53.098;6.596;2024-01-30T03:36:30;28.67;;;21.52;;
52858;SDS011;38721;53.098;6.596;2024-01-30T03:38:58;31.60;;;20.90;;
52858;SDS011;38721;53.098;6.596;2024-01-30T03:41:24;29.00;;;20.85;;
52858;SDS011;38721;53.098;6.596;2024-01-30T03:43:50;30.02;;;20.73;;
52858;SDS011;38721;53.098;6.596;2024-01-30T03:46:16;26.92;;;20.95;;
52858;SDS011;38721;53.098;6.596;2024-01-30T03:48:41;26.20;;;19.55;;
52858;SDS011;38721;53.098;6.596;2024-01-30T03:51:08;28.38;;;21.20;;
52858;SDS011;38721;53.098;6.596;2024-01-30T03:53:34;28.13;;;20.48;;
52858;SDS011;38721;53.098;6.596;2024-01-30T03:56:00;31.05;;;20.85;;
52858;SDS011;38721;53.098;6.596;2024-01-30T03:58:26;26.80;;;20.45;;
52858;SDS011;38721;53.098;6.596;2024-01-30T04:00:51;29.50;;;21.10;;
52858;SDS011;38721;53.098;6.596;2024-01-30T04:03:17;29.38;;;21.15;;
52858;SDS011;38721;53.098;6.596;2024-01-30T04:05:43;27.92;;;19.92;;
52858;SDS011;38721;53.098;6.596;2024-01-30T04:08:10;27.38;;;20.95;;
52858;SDS011;38721;53.098;6.596;2024-01-30T04:10:35;27.27;;;20.00;;
52858;SDS011;38721;53.098;6.596;2024-01-30T04:13:01;29.00;;;20.52;;
52858;SDS011;38721;53.098;6.596;2024-01-30T04:15:27;28.92;;;20.73;;
52858;SDS011;38721;53.098;6.596;2024-01-30T04:17:56;30.02;;;20.38;;
52858;SDS011;38721;53.098;6.596;2024-01-30T04:20:23;26.23;;;18.77;;
52858;SDS011;38721;53.098;6.596;2024-01-30T04:22:49;34.65;;;20.83;;
52858;SDS011;38721;53.098;6.596;2024-01-30T04:25:15;26.60;;;20.45;;
52858;SDS011;38721;53.098;6.596;2024-01-30T04:27:41;28.58;;;19.35;;
52858;SDS011;38721;53.098;6.596;2024-01-30T04:30:07;27.55;;;18.63;;
52858;SDS011;38721;53.098;6.596;2024-01-30T04:32:33;28.77;;;20.05;;
52858;SDS011;38721;53.098;6.596;2024-01-30T04:34:59;24.98;;;18.77;;
52858;SDS011;38721;53.098;6.596;2024-01-30T04:37:25;23.60;;;18.73;;
52858;SDS011;38721;53.098;6.596;2024-01-30T04:39:51;26.58;;;18.55;;
52858;SDS011;38721;53.098;6.596;2024-01-30T04:42:17;27.70;;;18.67;;
52858;SDS011;38721;53.098;6.596;2024-01-30T04:44:42;23.70;;;16.60;;
52858;SDS011;38721;53.098;6.596;2024-01-30T04:47:08;23.33;;;17.90;;
52858;SDS011;38721;53.098;6.596;2024-01-30T04:49:38;26.60;;;18.52;;
52858;SDS011;38721;53.098;6.596;2024-01-30T04:52:05;26.17;;;17.42;;
52858;SDS011;38721;53.098;6.596;2024-01-30T04:54:31;25.17;;;16.20;;
52858;SDS011;38721;53.098;6.596;2024-01-30T04:56:57;22.42;;;16.70;;
52858;SDS011;38721;53.098;6.596;2024-01-30T04:59:23;23.23;;;16.45;;
52858;SDS011;38721;53.098;6.596;2024-01-30T05:01:49;21.27;;;15.88;;
52858;SDS011;38721;53.098;6.596;2024-01-30T05:04:15;24.23;;;16.75;;
52858;SDS011;38721;53.098;6.596;2024-01-30T05:06:40;22.10;;;15.27;;
52858;SDS011;38721;53.098;6.596;2024-01-30T05:09:06;21.52;;;16.27;;
52858;SDS011;38721;53.098;6.596;2024-01-30T05:11:36;22.30;;;15.23;;
52858;SDS011;38721;53.098;6.596;2024-01-30T05:14:03;27.10;;;16.50;;
52858;SDS011;38721;53.098;6.596;2024-01-30T05:16:29;23.95;;;16.10;;
52858;SDS011;38721;53.098;6.596;2024-01-30T05:18:55;25.83;;;15.93;;
52858;SDS011;38721;53.098;6.596;2024-01-30T05:21:21;24.20;;;15.48;;
52858;SDS011;38721;53.098;6.596;2024-01-30T05:23:46;21.80;;;15.48;;
52858;SDS011;38721;53.098;6.596;2024-01-30T05:26:12;22.88;;;16.00;;
52858;SDS011;38721;53.098;6.596;2024-01-30T05:28:37;21.65;;;15.82;;
52858;SDS011;38721;53.098;6.596;2024-01-30T05:31:03;24.33;;;16.73;;
52858;SDS011;38721;53.098;6.596;2024-01-30T05:33:29;20.38;;;15.13;;
52858;SDS011;38721;53.098;6.596;2024-01-30T05:35:55;21.60;;;15.55;;
52858;SDS011;38721;53.098;6.596;2024-01-30T05:38:20;22.95;;;15.70;;
52858;SDS011;38721;53.098;6.596;2024-01-30T05:40:46;24.10;;;15.98;;
52858;SDS011;38721;53.098;6.596;2024-01-30T05:43:12;24.77;;;15.75;;
52858;SDS011;38721;53.098;6.596;2024-01-30T05:45:37;23.10;;;15.63;;
52858;SDS011;38721;53.098;6.596;2024-01-30T05:48:03;21.85;;;15.80;;
52858;SDS011;38721;53.098;6.596;2024-01-30T05:50:29;21.92;;;16.33;;
52858;SDS011;38721;53.098;6.596;2024-01-30T05:52:55;22.33;;;15.77;;
52858;SDS011;38721;53.098;6.596;2024-01-30T05:55:21;23.70;;;15.90;;
52858;SDS011;38721;53.098;6.596;2024-01-30T05:57:47;21.40;;;15.27;;
52858;SDS011;38721;53.098;6.596;2024-01-30T06:00:13;20.98;;;14.68;;
52858;SDS011;38721;53.098;6.596;2024-01-30T06:02:39;21.63;;;15.30;;
52858;SDS011;38721;53.098;6.596;2024-01-30T06:05:05;21.05;;;14.32;;
52858;SDS011;38721;53.098;6.596;2024-01-30T06:07:31;21.83;;;15.30;;
52858;SDS011;38721;53.098;6.596;2024-01-30T06:09:56;19.73;;;14.13;;
52858;SDS011;38721;53.098;6.596;2024-01-30T06:12:22;21.48;;;15.43;;
52858;SDS011;38721;53.098;6.596;2024-01-30T06:14:48;21.02;;;14.48;;
52858;SDS011;38721;53.098;6.596;2024-01-30T06:17:14;19.73;;;13.98;;
52858;SDS011;38721;53.098;6.596;2024-01-30T06:19:40;20.65;;;14.88;;
52858;SDS011;38721;53.098;6.596;2024-01-30T06:22:06;20.25;;;14.65;;
52858;SDS011;38721;53.098;6.596;2024-01-30T06:24:32;23.60;;;14.23;;
52858;SDS011;38721;53.098;6.596;2024-01-30T06:26:58;19.83;;;14.55;;
52858;SDS011;38721;53.098;6.596;2024-01-30T06:29:24;19.58;;;13.52;;
52858;SDS011;38721;53.098;6.596;2024-01-30T06:31:52;20.58;;;14.20;;
52858;SDS011;38721;53.098;6.596;2024-01-30T06:34:17;20.75;;;14.45;;
52858;SDS011;38721;53.098;6.596;2024-01-30T06:36:43;18.38;;;13.77;;
52858;SDS011;38721;53.098;6.596;2024-01-30T06:39:09;21.67;;;14.57;;
52858;SDS011;38721;53.098;6.596;2024-01-30T06:41:34;18.83;;;13.85;;
52858;SDS011;38721;53.098;6.596;2024-01-30T06:44:02;21.17;;;14.20;;
52858;SDS011;38721;53.098;6.596;2024-01-30T06:46:29;21.05;;;14.80;;
52858;SDS011;38721;53.098;6.596;2024-01-30T06:48:54;19.98;;;14.18;;
52858;SDS011;38721;53.098;6.596;2024-01-30T06:51:20;19.75;;;13.25;;
52858;SDS011;38721;53.098;6.596;2024-01-30T06:53:46;17.13;;;13.10;;
52858;SDS011;38721;53.098;6.596;2024-01-30T06:56:12;18.77;;;13.20;;
52858;SDS011;38721;53.098;6.596;2024-01-30T06:58:40;19.67;;;13.60;;
52858;SDS011;38721;53.098;6.596;2024-01-30T07:01:06;23.33;;;14.00;;
52858;SDS011;38721;53.098;6.596;2024-01-30T07:03:31;18.92;;;13.65;;
52858;SDS011;38721;53.098;6.596;2024-01-30T07:05:59;21.15;;;13.85;;
52858;SDS011;38721;53.098;6.596;2024-01-30T07:08:25;20.60;;;14.27;;
52858;SDS011;38721;53.098;6.596;2024-01-30T07:10:51;20.42;;;13.48;;
52858;SDS011;38721;53.098;6.596;2024-01-30T07:13:20;16.90;;;12.63;;
52858;SDS011;38721;53.098;6.596;2024-01-30T07:15:45;17.42;;;13.68;;
52858;SDS011;38721;53.098;6.596;2024-01-30T07:18:11;18.48;;;13.18;;
52858;SDS011;38721;53.098;6.596;2024-01-30T07:20:38;19.50;;;12.68;;
52858;SDS011;38721;53.098;6.596;2024-01-30T07:23:11;21.17;;;13.75;;
52858;SDS011;38721;53.098;6.596;2024-01-30T07:25:39;17.98;;;13.93;;
52858;SDS011;38721;53.098;6.596;2024-01-30T07:28:09;19.10;;;12.75;;
52858;SDS011;38721;53.098;6.596;2024-01-30T07:30:36;19.90;;;14.43;;
52858;SDS011;38721;53.098;6.596;2024-01-30T07:33:02;18.10;;;12.95;;
52858;SDS011;38721;53.098;6.596;2024-01-30T07:35:27;19.92;;;13.60;;
52858;SDS011;38721;53.098;6.596;2024-01-30T07:37:53;18.77;;;13.15;;
52858;SDS011;38721;53.098;6.596;2024-01-30T07:40:19;20.90;;;13.43;;
52858;SDS011;38721;53.098;6.596;2024-01-30T07:42:45;19.33;;;13.75;;
52858;SDS011;38721;53.098;6.596;2024-01-30T07:45:10;19.05;;;13.82;;
52858;SDS011;38721;53.098;6.596;2024-01-30T07:47:36;22.02;;;13.10;;
52858;SDS011;38721;53.098;6.596;2024-01-30T07:50:02;20.38;;;13.27;;
52858;SDS011;38721;53.098;6.596;2024-01-30T07:52:28;20.92;;;13.45;;
52858;SDS011;38721;53.098;6.596;2024-01-30T07:54:54;18.80;;;14.55;;
52858;SDS011;38721;53.098;6.596;2024-01-30T07:57:20;18.60;;;13.57;;
52858;SDS011;38721;53.098;6.596;2024-01-30T07:59:46;18.52;;;13.43;;
52858;SDS011;38721;53.098;6.596;2024-01-30T08:02:12;19.70;;;13.05;;
52858;SDS011;38721;53.098;6.596;2024-01-30T08:04:38;19.75;;;13.02;;
52858;SDS011;38721;53.098;6.596;2024-01-30T08:07:04;19.27;;;13.38;;
52858;SDS011;38721;53.098;6.596;2024-01-30T08:09:30;21.50;;;12.88;;
52858;SDS011;38721;53.098;6.596;2024-01-30T08:11:55;18.33;;;12.93;;
52858;SDS011;38721;53.098;6.596;2024-01-30T08:14:21;16.75;;;12.27;;
52858;SDS011;38721;53.098;6.596;2024-01-30T08:16:47;17.90;;;12.68;;
52858;SDS011;38721;53.098;6.596;2024-01-30T08:19:14;17.75;;;12.40;;
52858;SDS011;38721;53.098;6.596;2024-01-30T08:21:40;20.50;;;13.18;;
52858;SDS011;38721;53.098;6.596;2024-01-30T08:24:08;19.15;;;12.98;;
52858;SDS011;38721;53.098;6.596;2024-01-30T08:26:34;21.48;;;12.18;;
52858;SDS011;38721;53.098;6.596;2024-01-30T08:29:00;20.17;;;12.98;;
52858;SDS011;38721;53.098;6.596;2024-01-30T08:31:27;17.48;;;12.98;;
52858;SDS011;38721;53.098;6.596;2024-01-30T08:33:53;19.95;;;12.93;;
52858;SDS011;38721;53.098;6.596;2024-01-30T08:36:18;19.52;;;12.57;;
52858;SDS011;38721;53.098;6.596;2024-01-30T08:38:45;17.77;;;12.48;;
52858;SDS011;38721;53.098;6.596;2024-01-30T08:41:10;17.50;;;12.80;;
52858;SDS011;38721;53.098;6.596;2024-01-30T08:43:36;20.73;;;12.57;;
52858;SDS011;38721;53.098;6.596;2024-01-30T08:46:02;17.40;;;11.82;;
52858;SDS011;38721;53.098;6.596;2024-01-30T08:48:28;17.15;;;12.68;;
52858;SDS011;38721;53.098;6.596;2024-01-30T08:50:54;17.48;;;12.35;;
52858;SDS011;38721;53.098;6.596;2024-01-30T08:53:20;18.50;;;12.45;;
52858;SDS011;38721;53.098;6.596;2024-01-30T08:55:45;19.40;;;12.50;;
52858;SDS011;38721;53.098;6.596;2024-01-30T08:58:11;15.90;;;12.55;;
52858;SDS011;38721;53.098;6.596;2024-01-30T09:00:37;18.02;;;12.30;;
52858;SDS011;38721;53.098;6.596;2024-01-30T09:03:03;15.70;;;12.05;;
52858;SDS011;38721;53.098;6.596;2024-01-30T09:05:29;20.20;;;12.13;;
52858;SDS011;38721;53.098;6.596;2024-01-30T09:07:55;18.10;;;11.23;;
52858;SDS011;38721;53.098;6.596;2024-01-30T09:10:21;15.38;;;11.68;;
52858;SDS011;38721;53.098;6.596;2024-01-30T09:12:47;17.60;;;11.90;;
52858;SDS011;38721;53.098;6.596;2024-01-30T09:15:13;16.77;;;11.45;;
52858;SDS011;38721;53.098;6.596;2024-01-30T09:17:39;15.02;;;11.52;;
52858;SDS011;38721;53.098;6.596;2024-01-30T09:20:05;17.10;;;11.32;;
52858;SDS011;38721;53.098;6.596;2024-01-30T09:22:33;14.73;;;11.68;;
52858;SDS011;38721;53.098;6.596;2024-01-30T09:24:59;16.65;;;12.43;;
52858;SDS011;38721;53.098;6.596;2024-01-30T09:27:25;16.10;;;10.80;;
52858;SDS011;38721;53.098;6.596;2024-01-30T09:29:51;15.68;;;10.80;;
52858;SDS011;38721;53.098;6.596;2024-01-30T09:32:17;16.92;;;11.50;;
52858;SDS011;38721;53.098;6.596;2024-01-30T09:34:43;17.80;;;12.23;;
52858;SDS011;38721;53.098;6.596;2024-01-30T09:37:09;15.57;;;11.50;;
52858;SDS011;38721;53.098;6.596;2024-01-30T09:39:35;16.08;;;11.15;;
52858;SDS011;38721;53.098;6.596;2024-01-30T09:42:02;18.13;;;11.23;;
52858;SDS011;38721;53.098;6.596;2024-01-30T09:44:35;16.67;;;10.63;;
52858;SDS011;38721;53.098;6.596;2024-01-30T09:47:03;16.10;;;10.90;;
52858;SDS011;38721;53.098;6.596;2024-01-30T09:49:31;16.95;;;10.77;;
52858;SDS011;38721;53.098;6.596;2024-01-30T09:51:58;18.17;;;11.00;;
52858;SDS011;38721;53.098;6.596;2024-01-30T09:54:24;16.40;;;10.75;;
52858;SDS011;38721;53.098;6.596;2024-01-30T09:56:49;15.10;;;10.48;;
52858;SDS011;38721;53.098;6.596;2024-01-30T09:59:18;15.77;;;11.27;;
52858;SDS011;38721;53.098;6.596;2024-01-30T10:01:44;21.52;;;11.18;;
52858;SDS011;38721;53.098;6.596;2024-01-30T10:04:11;15.90;;;10.75;;
52858;SDS011;38721;53.098;6.596;2024-01-30T10:06:37;17.88;;;11.68;;
52858;SDS011;38721;53.098;6.596;2024-01-30T10:09:03;13.48;;;10.20;;
52858;SDS011;38721;53.098;6.596;2024-01-30T10:11:29;18.60;;;10.43;;
52858;SDS011;38721;53.098;6.596;2024-01-30T10:13:55;15.00;;;9.95;;
52858;SDS011;38721;53.098;6.596;2024-01-30T10:16:21;13.27;;;9.75;;
52858;SDS011;38721;53.098;6.596;2024-01-30T10:18:50;16.77;;;10.85;;
52858;SDS011;38721;53.098;6.596;2024-01-30T10:21:16;14.43;;;10.13;;
52858;SDS011;38721;53.098;6.596;2024-01-30T10:23:43;15.32;;;10.45;;
52858;SDS011;38721;53.098;6.596;2024-01-30T10:26:09;16.25;;;10.63;;
52858;SDS011;38721;53.098;6.596;2024-01-30T10:28:35;20.65;;;10.98;;
52858;SDS011;38721;53.098;6.596;2024-01-30T10:31:01;15.02;;;10.45;;
52858;SDS011;38721;53.098;6.596;2024-01-30T10:33:31;18.05;;;11.23;;
52858;SDS011;38721;53.098;6.596;2024-01-30T10:36:00;19.20;;;11.55;;
52858;SDS011;38721;53.098;6.596;2024-01-30T10:38:30;18.98;;;11.02;;
52858;SDS011;38721;53.098;6.596;2024-01-30T10:40:58;17.02;;;10.70;;
52858;SDS011;38721;53.098;6.596;2024-01-30T10:43:30;17.38;;;10.93;;
52858;SDS011;38721;53.098;6.596;2024-01-30T10:46:10;17.05;;;11.23;;
52858;SDS011;38721;53.098;6.596;2024-01-30T10:48:46;17.30;;;10.45;;
52858;SDS011;38721;53.098;6.596;2024-01-30T10:51:27;18.05;;;11.13;;
52858;SDS011;38721;53.098;6.596;2024-01-30T10:53:53;20.33;;;11.70;;
52858;SDS011;38721;53.098;6.596;2024-01-30T10:56:21;19.35;;;10.85;;
52858;SDS011;38721;53.098;6.596;2024-01-30T10:58:49;17.33;;;10.98;;
52858;SDS011;38721;53.098;6.596;2024-01-30T11:01:17;16.48;;;11.55;;
52858;SDS011;38721;53.098;6.596;2024-01-30T11:03:45;17.52;;;11.70;;
52858;SDS011;38721;53.098;6.596;2024-01-30T11:06:11;20.52;;;12.25;;
52858;SDS011;38721;53.098;6.596;2024-01-30T11:08:39;20.55;;;11.60;;
52858;SDS011;38721;53.098;6.596;2024-01-30T11:11:07;23.10;;;12.20;;
52858;SDS011;38721;53.098;6.596;2024-01-30T11:13:34;16.25;;;11.52;;
52858;SDS011;38721;53.098;6.596;2024-01-30T11:16:03;14.93;;;10.95;;
52858;SDS011;38721;53.098;6.596;2024-01-30T11:18:30;20.35;;;11.73;;
52858;SDS011;38721;53.098;6.596;2024-01-30T11:20:57;16.73;;;10.88;;
52858;SDS011;38721;53.098;6.596;2024-01-30T11:23:26;18.42;;;11.85;;
52858;SDS011;38721;53.098;6.596;2024-01-30T11:25:55;19.48;;;11.27;;
52858;SDS011;38721;53.098;6.596;2024-01-30T11:28:22;14.65;;;11.07;;
52858;SDS011;38721;53.098;6.596;2024-01-30T11:30:49;19.60;;;11.82;;
52858;SDS011;38721;53.098;6.596;2024-01-30T11:33:26;18.45;;;11.57;;
52858;SDS011;38721;53.098;6.596;2024-01-30T11:35:56;20.15;;;12.18;;
52858;SDS011;38721;53.098;6.596;2024-01-30T11:38:25;18.85;;;12.57;;
52858;SDS011;38721;53.098;6.596;2024-01-30T11:40:53;19.10;;;12.70;;
52858;SDS011;38721;53.098;6.596;2024-01-30T11:43:20;16.92;;;11.88;;
52858;SDS011;38721;53.098;6.596;2024-01-30T11:45:46;17.67;;;9.50;;
52858;SDS011;38721;53.098;6.596;2024-01-30T11:48:12;16.05;;;8.43;;
52858;SDS011;38721;53.098;6.596;2024-01-30T11:50:38;20.38;;;8.73;;
52858;SDS011;38721;53.098;6.596;2024-01-30T11:53:07;19.95;;;7.80;;
52858;SDS011;38721;53.098;6.596;2024-01-30T11:55:34;16.42;;;7.15;;
52858;SDS011;38721;53.098;6.596;2024-01-30T11:58:02;12.18;;;6.50;;
52858;SDS011;38721;53.098;6.596;2024-01-30T12:00:29;16.08;;;5.88;;
52858;SDS011;38721;53.098;6.596;2024-01-30T12:02:58;11.02;;;5.53;;
52858;SDS011;38721;53.098;6.596;2024-01-30T12:05:25;11.70;;;4.70;;
52858;SDS011;38721;53.098;6.596;2024-01-30T12:07:52;8.30;;;4.50;;
52858;SDS011;38721;53.098;6.596;2024-01-30T12:10:17;13.45;;;4.85;;
52858;SDS011;38721;53.098;6.596;2024-01-30T12:12:45;10.50;;;3.97;;
52858;SDS011;38721;53.098;6.596;2024-01-30T12:15:12;10.70;;;4.10;;
52858;SDS011;38721;53.098;6.596;2024-01-30T12:17:38;9.60;;;3.88;;
52858;SDS011;38721;53.098;6.596;2024-01-30T12:20:08;11.77;;;3.95;;
52858;SDS011;38721;53.098;6.596;2024-01-30T12:22:36;7.38;;;3.47;;
52858;SDS011;38721;53.098;6.596;2024-01-30T12:25:09;7.65;;;3.40;;
52858;SDS011;38721;53.098;6.596;2024-01-30T12:27:36;8.57;;;4.00;;
52858;SDS011;38721;53.098;6.596;2024-01-30T12:30:08;9.18;;;3.30;;
52858;SDS011;38721;53.098;6.596;2024-01-30T12:32:35;5.82;;;2.95;;
52858;SDS011;38721;53.098;6.596;2024-01-30T12:35:02;7.85;;;3.00;;
52858;SDS011;38721;53.098;6.596;2024-01-30T12:37:29;10.98;;;3.33;;
52858;SDS011;38721;53.098;6.596;2024-01-30T12:39:55;7.60;;;3.35;;
52858;SDS011;38721;53.098;6.596;2024-01-30T12:42:21;8.50;;;3.33;;
52858;SDS011;38721;53.098;6.596;2024-01-30T12:44:48;7.63;;;3.00;;
52858;SDS011;38721;53.098;6.596;2024-01-30T12:47:14;7.10;;;3.00;;
52858;SDS011;38721;53.098;6.596;2024-01-30T12:49:43;7.10;;;2.20;;
52858;SDS011;38721;53.098;6.596;2024-01-30T12:52:10;2.22;;;1.60;;
52858;SDS011;38721;53.098;6.596;2024-01-30T12:54:36;2.95;;;1.25;;
52858;SDS011;38721;53.098;6.596;2024-01-30T12:57:03;2.50;;;1.35;;
52858;SDS011;38721;53.098;6.596;2024-01-30T12:59:30;4.50;;;1.20;;
52858;SDS011;38721;53.098;6.596;2024-01-30T13:01:56;1.80;;;1.10;;
52858;SDS011;38721;53.098;6.596;2024-01-30T13:04:22;4.55;;;1.58;;
52858;SDS011;38721;53.098;6.596;2024-01-30T13:06:48;2.03;;;0.93;;
52858;SDS011;38721;53.098;6.596;2024-01-30T13:09:14;3.83;;;1.48;;
52858;SDS011;38721;53.098;6.596;2024-01-30T13:11:41;3.85;;;1.08;;
52858;SDS011;38721;53.098;6.596;2024-01-30T13:14:09;2.30;;;1.15;;
52858;SDS011;38721;53.098;6.596;2024-01-30T13:16:34;1.70;;;1.05;;
52858;SDS011;38721;53.098;6.596;2024-01-30T13:19:01;2.53;;;1.30;;
52858;SDS011;38721;53.098;6.596;2024-01-30T13:21:27;2.15;;;0.90;;
52858;SDS011;38721;53.098;6.596;2024-01-30T13:23:53;1.65;;;0.98;;
52858;SDS011;38721;53.098;6.596;2024-01-30T13:26:22;1.88;;;0.93;;
52858;SDS011;38721;53.098;6.596;2024-01-30T13:28:48;2.22;;;0.95;;
52858;SDS011;38721;53.098;6.596;2024-01-30T13:31:14;2.30;;;0.80;;
52858;SDS011;38721;53.098;6.596;2024-01-30T13:33:41;1.55;;;0.80;;
52858;SDS011;38721;53.098;6.596;2024-01-30T13:36:07;2.65;;;0.90;;
52858;SDS011;38721;53.098;6.596;2024-01-30T13:38:34;1.52;;;0.80;;
52858;SDS011;38721;53.098;6.596;2024-01-30T13:40:59;3.40;;;1.05;;
52858;SDS011;38721;53.098;6.596;2024-01-30T13:43:25;3.35;;;0.88;;
52858;SDS011;38721;53.098;6.596;2024-01-30T13:45:51;1.85;;;0.98;;
52858;SDS011;38721;53.098;6.596;2024-01-30T13:48:17;1.00;;;0.70;;
52858;SDS011;38721;53.098;6.596;2024-01-30T13:50:46;1.75;;;0.90;;
52858;SDS011;38721;53.098;6.596;2024-01-30T13:53:12;2.15;;;0.85;;
52858;SDS011;38721;53.098;6.596;2024-01-30T13:55:38;1.77;;;0.90;;
52858;SDS011;38721;53.098;6.596;2024-01-30T13:58:07;1.63;;;0.70;;
52858;SDS011;38721;53.098;6.596;2024-01-30T14:00:33;1.60;;;0.80;;
52858;SDS011;38721;53.098;6.596;2024-01-30T14:02:59;3.03;;;0.80;;
52858;SDS011;38721;53.098;6.596;2024-01-30T14:05:25;1.17;;;0.90;;
52858;SDS011;38721;53.098;6.596;2024-01-30T14:07:52;1.58;;;1.00;;
52858;SDS011;38721;53.098;6.596;2024-01-30T14:10:18;4.00;;;1.30;;
52858;SDS011;38721;53.098;6.596;2024-01-30T14:12:44;2.55;;;1.25;;
52858;SDS011;38721;53.098;6.596;2024-01-30T14:15:10;1.83;;;0.90;;
52858;SDS011;38721;53.098;6.596;2024-01-30T14:17:36;1.95;;;1.10;;
52858;SDS011;38721;53.098;6.596;2024-01-30T14:20:03;4.30;;;1.42;;
52858;SDS011;38721;53.098;6.596;2024-01-30T14:22:33;4.32;;;1.40;;